Monday, October 15, 2018, 4:32 AM EDT
Back to Local

KRKD, Rockland, Knox County Regional Airport

Location: Owls Head, ME, United States Lat: 44.067
Local Time: 4:32 AM EDT ( 8:32 GMT) Lon: -69.1
Time Zone: US/Eastern Elev: 55 ft

Show me the last for .
Show Coded

Time T Td Feel RH Dir Speed Gust Alt SLP Vis Weather Sky Remarks
2018-10-15 03:56 34 33 - 96 - Calm - 30.20 30.20 10 CLR None
2018-10-15 02:56 34 34 - 100 - Calm - 30.19 30.19 10 CLR None
2018-10-15 01:56 34 33 - 96 - Calm - 30.20 30.20 10 CLR 6-hr Min Temp (2am): 34.0°F
6-hr Max Temp (2am): 43.0°F
2018-10-15 00:56 36 35 - 96 - Calm - 30.20 30.20 10 CLR 24-hr Min Temp (1am): 32.0°F
24-hr Max Temp (1am): 55.0°F
2018-10-14 23:56 39 37 - 92 - Calm - 30.20 30.20 10 CLR None
2018-10-14 22:56 40 39 - 96 - Calm - 30.19 30.19 10 CLR None
2018-10-14 21:56 39 38 37 95 260° 3 - 30.18 30.18 10 CLR None
2018-10-14 20:56 40 39 38 96 290° 3 - 30.17 30.18 10 CLR None
2018-10-14 19:56 43 41 - 92 - Calm - 30.16 30.17 10 CLR 6-hr Min Temp (8pm): 43.0°F
6-hr Max Temp (8pm): 55.0°F
2018-10-14 18:56 46 40 45 79 220° 3 - 30.16 30.16 10 CLR None
2018-10-14 17:56 49 39 45 68 240° 8 - 30.14 30.15 10 CLR None
2018-10-14 16:56 52 38 - 58 220° 9 - 30.12 30.13 10 CLR None
2018-10-14 15:56 52 38 - 58 210° 10 - 30.12 30.13 10 CLR None
2018-10-14 14:56 54 34 - 46 280° 9 18 30.11 30.12 10 CLR None
2018-10-14 13:56 53 33 - 46 290° 14 18 30.11 30.11 10 CLR 6-hr Min Temp (2pm): 37.0°F
6-hr Max Temp (2pm): 53.1°F
2018-10-14 12:56 52 34 - 50 260° 15 - 30.10 30.11 10 CLR None
2018-10-14 11:56 50 34 45 53 260° 14 - 30.13 30.13 10 CLR None
2018-10-14 10:56 49 34 44 56 290° 12 - 30.13 30.13 10 CLR None
2018-10-14 09:56 47 34 42 60 280° 10 - 30.13 30.13 10 CLR None
2018-10-14 08:56 43 35 37 73 280° 10 - 30.13 30.14 10 CLR None
2018-10-14 07:56 38 34 36 85 300° 3 - 30.11 30.11 10 CLR 24-hr Precip Total (8am): 0.13"
6-hr Min Temp (8am): 32.0°F
6-hr Max Temp (8am): 37.9°F
2018-10-14 06:56 34 32 30 92 290° 5 - 30.09 30.09 10 CLR None
2018-10-14 05:56 33 32 30 95 280° 3 - 30.07 30.07 10 CLR None
2018-10-14 04:56 33 33 - 100 - Calm - 30.05 30.06 10 CLR None

Support USWX by starting your Amazon purchase here.